Time;durP1;ratioP1;P1;durP2;ratioP2;P2;SDS_P1;SDS_P2;PMS_P1;PMS_P2;Temp;Humidity;BMP_temperature;BMP_pressure;BME280_temperature;BME280_humidity;BME280_pressure;Samples;Min_cycle;Max_cycle;Signal;HPM_P1;HPM_P2
2022/12/31 00:01:26;;;;;;;;;;;;;;;;;;5071097;28;1980;-41
2022/12/31 00:03:53;;;;;;;;;;;;;;;;;;5070859;28;1776;-41
2022/12/31 00:06:22;;;;;;;;;;;;;;;;;;5070638;28;2060;-41
2022/12/31 00:08:50;;;;;;;;;;;;;;;;;;5070653;28;1813;-41
2022/12/31 00:11:17;;;;;;;;;;;;;;;;;;5070831;28;2020;-41
2022/12/31 00:13:45;;;;;;;;;;;;;;;;;;5070861;28;2013;-42
2022/12/31 00:16:14;;;;;;;;;;;;;;;;;;5070534;28;1231;-42
2022/12/31 00:18:43;;;;;;;;;;;;;;;;;;5070331;28;2072;-41
2022/12/31 00:21:10;;;;;;;;;;;;;;;;;;5070764;28;1852;-41
2022/12/31 00:23:38;;;;;;;;;;;;;;;;;;5070487;28;2106;-41
2022/12/31 00:26:07;;;;;;;;;;;;;;;;;;5070720;28;2133;-40
2022/12/31 00:28:34;;;;;;;;;;;;;;;;;;5070760;28;1836;-43
2022/12/31 00:31:06;;;;;;;;;;;;;;;;;;5070674;28;2032;-42
2022/12/31 00:33:33;;;;;;;;;;;;;;;;;;5070658;28;1968;-41
2022/12/31 00:36:04;;;;;;;;;;;;;;;;;;5070426;28;2178;-42
2022/12/31 00:38:31;;;;;;;;;;;;;;;;;;5070678;28;2094;-41
2022/12/31 00:40:59;;;;;;;;;;;;;;;;;;5070301;28;2117;-41
2022/12/31 00:43:26;;;;;;;;;;;;;;;;;;5070538;28;2092;-41
2022/12/31 00:45:53;;;;;;;;;;;;;;;;;;5072273;28;2006;-39
2022/12/31 00:48:20;;;;;;;;;;;;;;;;;;5074237;28;2140;-41
2022/12/31 00:50:47;;;;;;;;;;;;;;;;;;5074165;28;1758;-41
2022/12/31 00:53:14;;;;;;;;;;;;;;;;;;5073779;28;1935;-42
2022/12/31 00:55:42;;;;;;;;;;;;;;;;;;5074080;28;1996;-41
2022/12/31 00:58:09;;;;;;;;;;;;;;;;;;5074134;28;2178;-41
2022/12/31 01:00:36;;;;;;;;;;;;;;;;;;5073908;28;2201;-41
2022/12/31 01:03:04;;;;;;;;;;;;;;;;;;5073799;28;1937;-42
2022/12/31 01:05:31;;;;;;;;;;;;;;;;;;5073679;28;2597;-41
2022/12/31 01:07:59;;;;;;;;;;;;;;;;;;5073765;28;1930;-42
2022/12/31 01:13:11;;;;;;;;;;;;;;;;;;5073503;28;1878;-41
2022/12/31 01:15:38;;;;;;;;;;;;;;;;;;5073562;28;1985;-42
2022/12/31 01:18:09;;;;;;;;;;;;;;;;;;5073458;28;1985;-41
2022/12/31 01:20:37;;;;;;;;;;;;;;;;;;5073423;28;2119;-41
2022/12/31 01:23:05;;;;;;;;;;;;;;;;;;5073280;28;1523;-42
2022/12/31 01:25:37;;;;;;;;;;;;;;;;;;5073493;28;1862;-42
2022/12/31 01:28:05;;;;;;;;;;;;;;;;;;5073288;28;1857;-41
2022/12/31 01:30:32;;;;;;;;;;;;;;;;;;5073190;28;1995;-41
2022/12/31 01:33:02;;;;;;;;;;;;;;;;;;5073214;28;1944;-40
2022/12/31 01:35:29;;;;;;;;;;;;;;;;;;5073157;28;1956;-42
2022/12/31 01:37:56;;;;;;;;;;;;;;;;;;5073141;28;2090;-41
2022/12/31 01:40:23;;;;;;;;;;;;;;;;;;5073272;28;1795;-42
2022/12/31 01:42:55;;;;;;;;;;;;;;;;;;5073251;28;1996;-42
2022/12/31 01:45:23;;;;;;;;;;;;;;;;;;5073178;28;1371;-41
2022/12/31 01:47:52;;;;;;;;;;;;;;;;;;5073166;28;1991;-42
2022/12/31 01:50:21;;;;;;;;;;;;;;;;;;5072993;28;2120;-41
2022/12/31 01:52:49;;;;;;;;;;;;;;;;;;5072782;28;2091;-42
2022/12/31 01:55:20;;;;;;;;;;;;;;;;;;5072728;28;1770;-42
2022/12/31 01:57:48;;;;;;;;;;;;;;;;;;5072151;28;2159;-42
2022/12/31 02:00:15;;;;;;;;;;;;;;;;;;5072493;28;2141;-42
2022/12/31 02:02:46;;;;;;;;;;;;;;;;;;5072681;28;1816;-41
2022/12/31 02:05:26;;;;;;;;;;;;;;;;;;5072687;28;1950;-41
2022/12/31 02:07:53;;;;;;;;;;;;;;;;;;5072581;28;1570;-40
2022/12/31 02:10:20;;;;;;;;;;;;;;;;;;5072384;28;2049;-41
2022/12/31 02:12:48;;;;;;;;;;;;;;;;;;5072561;28;1984;-40
2022/12/31 02:15:15;;;;;;;;;;;;;;;;;;5072501;28;1944;-41
2022/12/31 02:18:12;;;;;;;;;;;;;;;;;;5071883;28;1912;-42
2022/12/31 02:20:52;;;;;;;;;;;;;;;;;;5063140;28;1928;-42
2022/12/31 02:23:44;;;;;;;;;;;;;;;;;;5072214;28;1839;-41
2022/12/31 02:26:11;;;;;;;;;;;;;;;;;;5072060;28;2014;-40
2022/12/31 02:28:57;;;;;;;;;;;;;;;;;;5072080;28;1863;-42
2022/12/31 02:31:34;;;;;;;;;;;;;;;;;;5072224;28;1888;-41
2022/12/31 02:34:10;;;;;;;;;;;;;;;;;;5071911;28;1757;-41
2022/12/31 02:36:41;;;;;;;;;;;;;;;;;;5071957;28;2130;-41
2022/12/31 02:39:09;;;;;;;;;;;;;;;;;;5071707;28;2157;-42
2022/12/31 02:41:48;;;;;;;;;;;;;;;;;;5072086;28;2062;-43
2022/12/31 02:44:25;;;;;;;;;;;;;;;;;;5071955;28;2046;-41
2022/12/31 02:47:07;;;;;;;;;;;;;;;;;;5070494;28;2107;-41
2022/12/31 02:49:38;;;;;;;;;;;;;;;;;;5071715;28;1862;-40
2022/12/31 02:52:14;;;;;;;;;;;;;;;;;;5071501;28;1965;-40
2022/12/31 02:54:57;;;;;;;;;;;;;;;;;;5071690;28;1268;-41
2022/12/31 02:57:35;;;;;;;;;;;;;;;;;;5071772;28;2185;-41
2022/12/31 03:02:51;;;;;;;;;;;;;;;;;;5071655;28;2113;-42
2022/12/31 03:05:21;;;;;;;;;;;;;;;;;;5071516;28;1880;-41
2022/12/31 03:07:48;;;;;;;;;;;;;;;;;;5070672;28;2189;-41
2022/12/31 03:10:16;;;;;;;;;;;;;;;;;;5071247;28;1751;-40
2022/12/31 03:12:47;;;;;;;;;;;;;;;;;;5071456;28;1868;-45
2022/12/31 03:15:24;;;;;;;;;;;;;;;;;;5071575;28;2039;-40
2022/12/31 03:17:53;;;;;;;;;;;;;;;;;;5071223;28;1966;-41
2022/12/31 03:23:08;;;;;;;;;;;;;;;;;;5071305;28;2047;-41
2022/12/31 03:25:36;;;;;;;;;;;;;;;;;;5071403;28;2082;-41
2022/12/31 03:28:05;;;;;;;;;;;;;;;;;;5071252;28;2030;-42
2022/12/31 03:30:33;;;;;;;;;;;;;;;;;;5071574;28;2068;-40
2022/12/31 03:33:00;;;;;;;;;;;;;;;;;;5071199;28;1983;-41
2022/12/31 03:35:28;;;;;;;;;;;;;;;;;;5071067;28;2165;-43
2022/12/31 03:37:56;;;;;;;;;;;;;;;;;;5071117;28;1906;-42
2022/12/31 03:40:25;;;;;;;;;;;;;;;;;;5070948;28;1981;-40
2022/12/31 03:42:52;;;;;;;;;;;;;;;;;;5071119;28;1950;-41
2022/12/31 03:45:19;;;;;;;;;;;;;;;;;;5070967;28;1983;-41
2022/12/31 03:47:46;;;;;;;;;;;;;;;;;;5070963;28;2045;-41
2022/12/31 03:50:14;;;;;;;;;;;;;;;;;;5071208;28;2135;-42
2022/12/31 03:52:42;;;;;;;;;;;;;;;;;;5071009;28;2126;-39
2022/12/31 03:55:11;;;;;;;;;;;;;;;;;;5071028;28;1798;-40
2022/12/31 03:57:39;;;;;;;;;;;;;;;;;;5070912;28;1830;-41
2022/12/31 04:00:07;;;;;;;;;;;;;;;;;;5069551;28;2335;-40
2022/12/31 04:02:37;;;;;;;;;;;;;;;;;;5070926;28;1776;-40
2022/12/31 04:05:04;;;;;;;;;;;;;;;;;;5070790;28;1947;-41
2022/12/31 04:07:32;;;;;;;;;;;;;;;;;;5071133;28;2117;-42
2022/12/31 04:09:59;;;;;;;;;;;;;;;;;;5070972;28;1941;-42
2022/12/31 04:12:26;;;;;;;;;;;;;;;;;;5070886;28;1913;-41
2022/12/31 04:14:53;;;;;;;;;;;;;;;;;;5069452;28;1921;-42
2022/12/31 04:17:20;;;;;;;;;;;;;;;;;;5070650;28;2078;-43
2022/12/31 04:19:47;;;;;;;;;;;;;;;;;;5071996;28;1938;-41
2022/12/31 04:22:15;;;;;;;;;;;;;;;;;;5074483;28;1950;-41
2022/12/31 04:24:42;;;;;;;;;;;;;;;;;;5074487;28;2119;-42
2022/12/31 04:27:10;;;;;;;;;;;;;;;;;;5056018;28;1938;-41
2022/12/31 04:29:37;;;;;;;;;;;;;;;;;;5074351;28;2206;-41
2022/12/31 04:32:05;;;;;;;;;;;;;;;;;;5074638;28;1944;-43
2022/12/31 04:34:33;;;;;;;;;;;;;;;;;;5074415;28;1982;-42
2022/12/31 04:37:00;;;;;;;;;;;;;;;;;;5074324;28;2002;-41
2022/12/31 04:39:27;;;;;;;;;;;;;;;;;;5074267;28;1906;-42
2022/12/31 04:41:54;;;;;;;;;;;;;;;;;;5074024;28;2142;-41
2022/12/31 04:44:23;;;;;;;;;;;;;;;;;;5089859;28;2571;-41
2022/12/31 04:46:50;;;;;;;;;;;;;;;;;;5074037;28;1714;-41
2022/12/31 04:49:17;;;;;;;;;;;;;;;;;;5074176;28;2209;-41
2022/12/31 04:51:46;;;;;;;;;;;;;;;;;;5089263;28;2168;-41
2022/12/31 04:54:13;;;;;;;;;;;;;;;;;;5074475;28;1946;-41
2022/12/31 04:56:40;;;;;;;;;;;;;;;;;;5073814;28;1762;-42
2022/12/31 04:59:08;;;;;;;;;;;;;;;;;;5073687;28;2084;-41
2022/12/31 05:01:38;;;;;;;;;;;;;;;;;;5074205;28;1939;-42
2022/12/31 05:04:05;;;;;;;;;;;;;;;;;;5074022;28;2030;-41
2022/12/31 05:06:33;;;;;;;;;;;;;;;;;;5072779;28;1932;-40
2022/12/31 05:09:00;;;;;;;;;;;;;;;;;;5073626;28;1918;-41
2022/12/31 05:11:27;;;;;;;;;;;;;;;;;;5073665;28;2168;-41
2022/12/31 05:13:54;;;;;;;;;;;;;;;;;;5073837;28;2026;-41
2022/12/31 05:16:23;;;;;;;;;;;;;;;;;;5073569;28;2075;-42
2022/12/31 05:18:50;;;;;;;;;;;;;;;;;;5073545;28;2339;-42
2022/12/31 05:21:19;;;;;;;;;;;;;;;;;;5073073;28;1920;-42
2022/12/31 05:23:47;;;;;;;;;;;;;;;;;;5073387;28;1802;-41
2022/12/31 05:26:17;;;;;;;;;;;;;;;;;;5073541;28;1994;-42
2022/12/31 05:28:44;;;;;;;;;;;;;;;;;;5073531;28;1960;-41
2022/12/31 05:31:11;;;;;;;;;;;;;;;;;;5072350;28;1807;-40
2022/12/31 05:33:38;;;;;;;;;;;;;;;;;;5073147;28;2097;-42
2022/12/31 05:36:05;;;;;;;;;;;;;;;;;;5072781;28;1788;-41
2022/12/31 05:38:32;;;;;;;;;;;;;;;;;;5073183;28;2257;-41
2022/12/31 05:41:01;;;;;;;;;;;;;;;;;;5073241;28;2072;-41
2022/12/31 05:43:29;;;;;;;;;;;;;;;;;;5071473;28;1986;-42
2022/12/31 05:45:59;;;;;;;;;;;;;;;;;;5073168;28;1885;-41
2022/12/31 05:48:26;;;;;;;;;;;;;;;;;;5072985;28;1868;-42
2022/12/31 05:50:54;;;;;;;;;;;;;;;;;;5072843;28;1928;-41
2022/12/31 05:53:21;;;;;;;;;;;;;;;;;;5072878;28;1923;-42
2022/12/31 05:55:48;;;;;;;;;;;;;;;;;;5072856;28;1985;-42
2022/12/31 05:58:16;;;;;;;;;;;;;;;;;;5072796;28;1967;-43
2022/12/31 06:00:43;;;;;;;;;;;;;;;;;;5072653;28;1932;-40
2022/12/31 06:03:11;;;;;;;;;;;;;;;;;;5072624;28;2090;-41
2022/12/31 06:05:39;;;;;;;;;;;;;;;;;;5072794;28;1893;-41
2022/12/31 06:08:06;;;;;;;;;;;;;;;;;;5072713;28;1852;-41
2022/12/31 06:10:33;;;;;;;;;;;;;;;;;;5072572;28;1942;-41
2022/12/31 06:13:01;;;;;;;;;;;;;;;;;;5072637;28;1778;-42
2022/12/31 06:15:28;;;;;;;;;;;;;;;;;;5072462;28;2011;-43
2022/12/31 06:17:55;;;;;;;;;;;;;;;;;;5072405;28;1966;-41
2022/12/31 06:20:23;;;;;;;;;;;;;;;;;;5072228;28;2281;-42
2022/12/31 06:22:50;;;;;;;;;;;;;;;;;;5072267;28;1940;-41
2022/12/31 06:25:17;;;;;;;;;;;;;;;;;;5072152;28;1983;-43
2022/12/31 06:27:44;;;;;;;;;;;;;;;;;;5072188;28;2027;-42
2022/12/31 06:30:11;;;;;;;;;;;;;;;;;;5072318;28;2278;-41
2022/12/31 06:32:39;;;;;;;;;;;;;;;;;;5072159;28;1829;-41
2022/12/31 06:35:06;;;;;;;;;;;;;;;;;;5072144;28;2337;-41
2022/12/31 06:37:33;;;;;;;;;;;;;;;;;;5071966;28;1424;-41
2022/12/31 06:40:01;;;;;;;;;;;;;;;;;;5071753;28;2043;-41
2022/12/31 06:42:29;;;;;;;;;;;;;;;;;;5071410;28;1880;-42
2022/12/31 06:44:57;;;;;;;;;;;;;;;;;;5071821;28;1993;-41
2022/12/31 06:47:24;;;;;;;;;;;;;;;;;;5071876;28;2099;-41
2022/12/31 06:49:52;;;;;;;;;;;;;;;;;;5071511;28;1998;-40
2022/12/31 06:52:19;;;;;;;;;;;;;;;;;;5071733;28;2008;-40
2022/12/31 06:54:49;;;;;;;;;;;;;;;;;;5071709;28;1846;-40
2022/12/31 06:57:17;;;;;;;;;;;;;;;;;;5070654;28;2013;-41
2022/12/31 06:59:44;;;;;;;;;;;;;;;;;;5071680;28;2035;-40
2022/12/31 07:02:20;;;;;;;;;;;;;;;;;;5071750;28;1870;-40
2022/12/31 07:04:57;;;;;;;;;;;;;;;;;;5069903;28;2099;-41
2022/12/31 07:07:43;;;;;;;;;;;;;;;;;;5071449;28;1776;-40
2022/12/31 07:10:10;;;;;;;;;;;;;;;;;;5071520;28;1998;-39
2022/12/31 07:12:56;;;;;;;;;;;;;;;;;;5071539;28;1796;-40
2022/12/31 07:15:35;;;;;;;;;;;;;;;;;;5071428;28;2088;-40
2022/12/31 07:18:16;;;;;;;;;;;;;;;;;;5071012;28;1875;-39
2022/12/31 07:20:43;;;;;;;;;;;;;;;;;;5071354;28;1973;-40
2022/12/31 07:23:10;;;;;;;;;;;;;;;;;;5071357;28;2232;-39
2022/12/31 07:25:44;;;;;;;;;;;;;;;;;;5071554;28;2092;-39
2022/12/31 07:28:21;;;;;;;;;;;;;;;;;;5071414;28;1333;-39
2022/12/31 07:30:58;;;;;;;;;;;;;;;;;;5071103;28;1999;-39
2022/12/31 07:33:31;;;;;;;;;;;;;;;;;;5071190;28;1769;-39
2022/12/31 07:35:58;;;;;;;;;;;;;;;;;;5070840;28;2137;-39
2022/12/31 07:38:26;;;;;;;;;;;;;;;;;;5071269;28;1796;-39
2022/12/31 07:40:56;;;;;;;;;;;;;;;;;;5071099;28;1979;-38
2022/12/31 07:43:33;;;;;;;;;;;;;;;;;;5071006;28;2061;-39
2022/12/31 07:46:18;;;;;;;;;;;;;;;;;;5070879;28;1950;-40
2022/12/31 07:48:46;;;;;;;;;;;;;;;;;;5071226;28;1993;-38
2022/12/31 07:51:13;;;;;;;;;;;;;;;;;;5071606;28;1985;-39
2022/12/31 07:53:40;;;;;;;;;;;;;;;;;;5070920;28;1931;-39
2022/12/31 07:56:08;;;;;;;;;;;;;;;;;;5074729;28;2221;-38
2022/12/31 07:58:39;;;;;;;;;;;;;;;;;;5074932;28;1909;-38
2022/12/31 08:01:11;;;;;;;;;;;;;;;;;;5074984;28;1997;-39
2022/12/31 08:03:56;;;;;;;;;;;;;;;;;;5074864;28;1764;-38
2022/12/31 08:06:26;;;;;;;;;;;;;;;;;;5074786;28;1846;-37
2022/12/31 08:09:07;;;;;;;;;;;;;;;;;;5074760;28;1687;-37
2022/12/31 08:11:39;;;;;;;;;;;;;;;;;;5074703;28;1544;-39
2022/12/31 08:14:11;;;;;;;;;;;;;;;;;;5074753;28;1868;-39
2022/12/31 08:16:38;;;;;;;;;;;;;;;;;;5074313;28;1537;-38
2022/12/31 08:19:05;;;;;;;;;;;;;;;;;;5074610;28;2138;-38
2022/12/31 08:21:46;;;;;;;;;;;;;;;;;;5074487;28;1945;-39
2022/12/31 08:24:29;;;;;;;;;;;;;;;;;;5074470;28;2151;-39
2022/12/31 08:27:04;;;;;;;;;;;;;;;;;;5074541;28;2291;-38
2022/12/31 08:29:34;;;;;;;;;;;;;;;;;;5074719;28;2081;-40
2022/12/31 08:32:32;;;;;;;;;;;;;;;;;;5074323;28;1961;-38
2022/12/31 08:35:12;;;;;;;;;;;;;;;;;;5045500;28;2012;-38
2022/12/31 08:37:41;;;;;;;;;;;;;;;;;;5054208;28;2002;-38
2022/12/31 08:40:24;;;;;;;;;;;;;;;;;;5054302;28;2115;-39
2022/12/31 08:42:55;;;;;;;;;;;;;;;;;;5054062;28;2021;-38
2022/12/31 08:45:26;;;;;;;;;;;;;;;;;;5053188;28;2014;-39
2022/12/31 08:48:00;;;;;;;;;;;;;;;;;;5053871;28;2024;-39
2022/12/31 08:50:27;;;;;;;;;;;;;;;;;;5053894;28;1913;-38
2022/12/31 08:52:54;;;;;;;;;;;;;;;;;;5054060;28;2595;-39
2022/12/31 08:55:22;;;;;;;;;;;;;;;;;;5054099;28;2054;-43
2022/12/31 08:57:58;;;;;;;;;;;;;;;;;;5054163;28;1956;-39
2022/12/31 09:00:26;;;;;;;;;;;;;;;;;;5053261;28;2255;-39
2022/12/31 09:02:53;;;;;;;;;;;;;;;;;;5053946;28;2490;-39
2022/12/31 09:05:25;;;;;;;;;;;;;;;;;;5071414;28;2254;-39
2022/12/31 09:07:59;;;;;;;;;;;;;;;;;;5073869;28;1886;-39
2022/12/31 09:10:30;;;;;;;;;;;;;;;;;;5073660;28;2141;-39
2022/12/31 09:13:16;;;;;;;;;;;;;;;;;;5073632;28;1835;-40
2022/12/31 09:15:46;;;;;;;;;;;;;;;;;;5073632;28;1967;-39
2022/12/31 09:18:14;;;;;;;;;;;;;;;;;;5073613;28;1420;-39
2022/12/31 09:20:41;;;;;;;;;;;;;;;;;;5073478;28;1997;-39
2022/12/31 09:23:10;;;;;;;;;;;;;;;;;;5073476;28;2207;-39
2022/12/31 09:25:44;;;;;;;;;;;;;;;;;;5073529;28;1971;-40
2022/12/31 09:28:29;;;;;;;;;;;;;;;;;;5073264;28;2007;-39
2022/12/31 09:31:35;;;;;;;;;;;;;;;;;;5053205;28;1752;-39
2022/12/31 09:34:10;;;;;;;;;;;;;;;;;;5024859;28;2042;-39
2022/12/31 09:36:43;;;;;;;;;;;;;;;;;;5031073;28;2122;-39
2022/12/31 09:39:29;;;;;;;;;;;;;;;;;;5055432;28;2406;-39
2022/12/31 09:41:59;;;;;;;;;;;;;;;;;;5073198;28;1982;-39
2022/12/31 09:44:32;;;;;;;;;;;;;;;;;;5071815;28;2037;-39
2022/12/31 09:47:14;;;;;;;;;;;;;;;;;;5073147;28;2068;-39
2022/12/31 09:49:57;;;;;;;;;;;;;;;;;;5073283;28;1575;-40
2022/12/31 09:52:29;;;;;;;;;;;;;;;;;;5072754;28;1918;-39
2022/12/31 09:55:17;;;;;;;;;;;;;;;;;;5072786;28;2074;-39
2022/12/31 09:57:47;;;;;;;;;;;;;;;;;;5072751;28;1490;-40
2022/12/31 10:00:20;;;;;;;;;;;;;;;;;;5072452;28;2053;-40
2022/12/31 10:03:06;;;;;;;;;;;;;;;;;;5072667;28;2106;-39
2022/12/31 10:05:45;;;;;;;;;;;;;;;;;;5071425;28;2212;-39
2022/12/31 10:08:12;;;;;;;;;;;;;;;;;;5071310;28;2294;-39
2022/12/31 10:10:51;;;;;;;;;;;;;;;;;;5071414;28;1967;-40
2022/12/31 10:13:21;;;;;;;;;;;;;;;;;;5072514;28;1902;-39
2022/12/31 10:16:00;;;;;;;;;;;;;;;;;;5072527;28;2089;-40
2022/12/31 10:18:31;;;;;;;;;;;;;;;;;;5071812;28;1980;-40
2022/12/31 10:21:08;;;;;;;;;;;;;;;;;;5071858;28;2200;-40
2022/12/31 10:23:35;;;;;;;;;;;;;;;;;;5072150;28;1973;-39
2022/12/31 10:26:08;;;;;;;;;;;;;;;;;;5072589;28;1988;-41
2022/12/31 10:28:58;;;;;;;;;;;;;;;;;;5072247;28;1845;-41
2022/12/31 10:31:39;;;;;;;;;;;;;;;;;;5072357;28;1814;-42
2022/12/31 10:34:12;;;;;;;;;;;;;;;;;;5071895;28;2012;-41
2022/12/31 10:36:50;;;;;;;;;;;;;;;;;;5072248;28;1957;-41
2022/12/31 10:39:23;;;;;;;;;;;;;;;;;;5071938;28;1970;-41
2022/12/31 10:42:06;;;;;;;;;;;;;;;;;;5071920;28;1909;-43
2022/12/31 10:44:46;;;;;;;;;;;;;;;;;;5071940;28;1984;-42
2022/12/31 10:47:13;;;;;;;;;;;;;;;;;;5071949;28;2063;-42
2022/12/31 10:49:58;;;;;;;;;;;;;;;;;;5071238;28;2076;-44
2022/12/31 10:52:32;;;;;;;;;;;;;;;;;;5072541;28;1850;-43
2022/12/31 10:55:23;;;;;;;;;;;;;;;;;;5071563;28;2004;-43
2022/12/31 10:58:09;;;;;;;;;;;;;;;;;;5071124;28;2171;-45
2022/12/31 11:01:12;;;;;;;;;;;;;;;;;;5071588;28;1985;-44
2022/12/31 11:03:49;;;;;;;;;;;;;;;;;;4990128;28;2057;-44
2022/12/31 11:06:28;;;;;;;;;;;;;;;;;;5061435;28;1993;-44
2022/12/31 11:08:55;;;;;;;;;;;;;;;;;;5071639;28;1940;-45
2022/12/31 11:11:22;;;;;;;;;;;;;;;;;;5071567;28;2039;-45
2022/12/31 11:13:58;;;;;;;;;;;;;;;;;;5071461;28;1821;-49
2022/12/31 11:16:32;;;;;;;;;;;;;;;;;;5071852;28;2007;-48
2022/12/31 11:19:05;;;;;;;;;;;;;;;;;;5071513;28;2068;-48
2022/12/31 11:21:55;;;;;;;;;;;;;;;;;;5071217;28;2021;-51
2022/12/31 11:24:25;;;;;;;;;;;;;;;;;;5034256;28;1991;-48
2022/12/31 11:27:02;;;;;;;;;;;;;;;;;;5071524;28;1906;-46
2022/12/31 11:29:52;;;;;;;;;;;;;;;;;;5070604;28;1945;-47
2022/12/31 11:32:38;;;;;;;;;;;;;;;;;;5071026;28;2000;-45
2022/12/31 11:35:17;;;;;;;;;;;;;;;;;;5051235;28;2066;-43
2022/12/31 11:37:49;;;;;;;;;;;;;;;;;;5051134;28;1925;-45
2022/12/31 11:40:22;;;;;;;;;;;;;;;;;;5051081;28;1977;-48
2022/12/31 11:42:55;;;;;;;;;;;;;;;;;;5051032;28;2011;-47
2022/12/31 11:45:32;;;;;;;;;;;;;;;;;;5051106;28;1998;-43
2022/12/31 11:48:31;;;;;;;;;;;;;;;;;;5051136;28;2038;-45
2022/12/31 11:51:01;;;;;;;;;;;;;;;;;;5028591;28;2079;-44
2022/12/31 11:53:42;;;;;;;;;;;;;;;;;;5051064;28;1961;-45
2022/12/31 11:56:38;;;;;;;;;;;;;;;;;;5058090;28;2076;-43
2022/12/31 11:59:10;;;;;;;;;;;;;;;;;;5034149;28;1749;-46
2022/12/31 12:02:03;;;;;;;;;;;;;;;;;;5070747;28;2066;-44
2022/12/31 12:04:30;;;;;;;;;;;;;;;;;;5071112;28;2059;-45
2022/12/31 12:06:58;;;;;;;;;;;;;;;;;;5069967;28;2464;-44
2022/12/31 12:09:30;;;;;;;;;;;;;;;;;;5070938;28;1979;-44
2022/12/31 12:11:59;;;;;;;;;;;;;;;;;;5070692;28;2011;-42
2022/12/31 12:14:36;;;;;;;;;;;;;;;;;;5070862;28;1817;-43
2022/12/31 12:17:12;;;;;;;;;;;;;;;;;;5070754;28;1985;-42
2022/12/31 12:19:44;;;;;;;;;;;;;;;;;;5070677;28;1853;-42
2022/12/31 12:41:26;;;;;;;;;;;;;;;;;;5573167;23;2473;31
2022/12/31 12:44:07;;;;;;;;;;;;;;;;;;4970639;28;1629;-42
2022/12/31 12:46:38;;;;;;;;;;;;;;;;;;4973328;28;1218;-40
2022/12/31 12:49:20;;;;;;;;;;;;;;;;;;4973364;28;1151;-40
2022/12/31 12:51:47;;;;;;;;;;;;;;;;;;4973421;28;1026;-40
2022/12/31 12:54:17;;;;;;;;;;;;;;;;;;4972977;28;1090;-41
2022/12/31 12:56:48;;;;;;;;;;;;;;;;;;4973261;28;1063;-41
2022/12/31 12:59:28;;;;;;;;;;;;;;;;;;4973406;28;1331;-40
2022/12/31 13:02:19;;;;;;;;;;;;;;;;;;4973017;28;1981;-41
2022/12/31 13:04:53;;;;;;;;;;;;;;;;;;4973247;28;1148;-43
2022/12/31 13:07:38;;;;;;;;;;;;;;;;;;4972852;28;1299;-41
2022/12/31 13:10:06;;;;;;;;;;;;;;;;;;4972708;28;1064;-40
2022/12/31 13:12:35;;;;;;;;;;;;;;;;;;4972876;28;1030;-41
2022/12/31 13:15:34;;;;;;;;;;;;;;;;;;4973430;28;1321;-40
2022/12/31 13:18:14;;;;;;;;;;;;;;;;;;4994354;28;1030;-40
2022/12/31 13:20:49;;;;;;;;;;;;;;;;;;4994327;28;1906;-40
2022/12/31 13:23:25;;;;;;;;;;;;;;;;;;4994381;28;1204;-40
2022/12/31 13:26:12;;;;;;;;;;;;;;;;;;4994292;28;1194;-40
2022/12/31 13:28:41;;;;;;;;;;;;;;;;;;4964180;28;1238;-41
2022/12/31 13:31:12;;;;;;;;;;;;;;;;;;4994360;28;963;-42
2022/12/31 13:33:44;;;;;;;;;;;;;;;;;;4993980;28;1343;-42
2022/12/31 13:36:16;;;;;;;;;;;;;;;;;;4993987;28;1026;-43
2022/12/31 13:38:48;;;;;;;;;;;;;;;;;;4993913;28;1189;-43
2022/12/31 13:41:21;;;;;;;;;;;;;;;;;;4993983;28;1910;-41
2022/12/31 13:44:01;;;;;;;;;;;;;;;;;;4994010;28;1219;-42
2022/12/31 13:46:37;;;;;;;;;;;;;;;;;;4993743;28;1110;-43
2022/12/31 13:49:13;;;;;;;;;;;;;;;;;;4993713;28;934;-42
2022/12/31 13:51:45;;;;;;;;;;;;;;;;;;4993233;28;938;-41
2022/12/31 13:54:33;;;;;;;;;;;;;;;;;;4993510;28;1094;-41
2022/12/31 13:57:08;;;;;;;;;;;;;;;;;;4993522;28;891;-41
2022/12/31 13:59:37;;;;;;;;;;;;;;;;;;4993782;28;1163;-40
2022/12/31 14:02:18;;;;;;;;;;;;;;;;;;4993714;28;1969;-41
2022/12/31 14:04:48;;;;;;;;;;;;;;;;;;4993534;28;1098;-40
2022/12/31 14:07:18;;;;;;;;;;;;;;;;;;4993438;28;1034;-40
2022/12/31 14:09:45;;;;;;;;;;;;;;;;;;4993463;28;1007;-40
2022/12/31 14:12:33;;;;;;;;;;;;;;;;;;4993288;28;1102;-40
2022/12/31 14:15:00;;;;;;;;;;;;;;;;;;4963516;28;1147;-40
2022/12/31 14:17:32;;;;;;;;;;;;;;;;;;4993339;28;1067;-41
2022/12/31 14:20:03;;;;;;;;;;;;;;;;;;4993058;28;932;-41
2022/12/31 14:22:30;;;;;;;;;;;;;;;;;;4993271;28;1970;-43
2022/12/31 14:24:58;;;;;;;;;;;;;;;;;;4993294;28;919;-41
2022/12/31 14:27:44;;;;;;;;;;;;;;;;;;4993123;28;982;-41
2022/12/31 14:30:14;;;;;;;;;;;;;;;;;;4992980;28;1025;-40
2022/12/31 14:32:56;;;;;;;;;;;;;;;;;;4992836;28;1194;-41
2022/12/31 14:35:36;;;;;;;;;;;;;;;;;;4993175;28;1008;-41
2022/12/31 14:38:09;;;;;;;;;;;;;;;;;;4991641;28;1195;-41
2022/12/31 14:40:47;;;;;;;;;;;;;;;;;;4992908;28;1920;-41
2022/12/31 14:43:17;;;;;;;;;;;;;;;;;;4992596;28;1454;-43
2022/12/31 14:46:03;;;;;;;;;;;;;;;;;;4992835;28;1171;-41
2022/12/31 14:48:33;;;;;;;;;;;;;;;;;;4992815;28;917;-41
2022/12/31 14:51:01;;;;;;;;;;;;;;;;;;4992765;28;1079;-43
2022/12/31 14:53:29;;;;;;;;;;;;;;;;;;4992482;28;999;-42
2022/12/31 14:55:57;;;;;;;;;;;;;;;;;;4992172;28;1027;-42
2022/12/31 14:58:30;;;;;;;;;;;;;;;;;;4975500;28;1443;-43
2022/12/31 15:01:21;;;;;;;;;;;;;;;;;;4992518;28;1986;-42
2022/12/31 15:03:49;;;;;;;;;;;;;;;;;;4987318;28;1337;-42
2022/12/31 15:06:22;;;;;;;;;;;;;;;;;;4992893;28;1149;-42
2022/12/31 15:09:03;;;;;;;;;;;;;;;;;;4992429;28;1097;-42
2022/12/31 15:11:37;;;;;;;;;;;;;;;;;;4992301;28;1011;-42
2022/12/31 15:14:24;;;;;;;;;;;;;;;;;;4992264;28;919;-42
2022/12/31 15:16:57;;;;;;;;;;;;;;;;;;4992218;28;1085;-42
2022/12/31 15:19:28;;;;;;;;;;;;;;;;;;4992284;28;1071;-41
2022/12/31 15:22:03;;;;;;;;;;;;;;;;;;4992232;28;1912;-41
2022/12/31 15:24:31;;;;;;;;;;;;;;;;;;4991745;28;1130;-41
2022/12/31 15:27:00;;;;;;;;;;;;;;;;;;4992126;28;1079;-42
2022/12/31 15:29:35;;;;;;;;;;;;;;;;;;4992410;28;1061;-41
2022/12/31 15:32:03;;;;;;;;;;;;;;;;;;4991984;28;1136;-42
2022/12/31 15:34:33;;;;;;;;;;;;;;;;;;4992034;28;1101;-41
2022/12/31 15:37:02;;;;;;;;;;;;;;;;;;4991898;28;1082;-42
2022/12/31 15:39:29;;;;;;;;;;;;;;;;;;4991866;28;1119;-42
2022/12/31 15:41:57;;;;;;;;;;;;;;;;;;4991962;28;1923;-41
2022/12/31 15:44:49;;;;;;;;;;;;;;;;;;4977399;28;1631;-41
2022/12/31 15:47:22;;;;;;;;;;;;;;;;;;4991748;28;903;-40
2022/12/31 15:49:51;;;;;;;;;;;;;;;;;;4991855;28;1047;-40
2022/12/31 15:52:18;;;;;;;;;;;;;;;;;;4991805;28;1080;-40
2022/12/31 15:54:50;;;;;;;;;;;;;;;;;;4991700;28;1073;-39
2022/12/31 15:57:31;;;;;;;;;;;;;;;;;;4990485;28;1237;-42
2022/12/31 16:00:00;;;;;;;;;;;;;;;;;;4991716;28;1066;-40
2022/12/31 16:02:32;;;;;;;;;;;;;;;;;;4974919;28;1911;-40
2022/12/31 16:05:00;;;;;;;;;;;;;;;;;;4992020;28;1311;-41
2022/12/31 16:07:27;;;;;;;;;;;;;;;;;;4991967;28;1081;-40
2022/12/31 16:09:57;;;;;;;;;;;;;;;;;;4991578;28;1064;-41
2022/12/31 16:12:26;;;;;;;;;;;;;;;;;;4991534;28;1072;-39
2022/12/31 16:14:58;;;;;;;;;;;;;;;;;;4991784;28;1062;-39
2022/12/31 16:17:29;;;;;;;;;;;;;;;;;;4995728;28;1020;-39
2022/12/31 16:19:57;;;;;;;;;;;;;;;;;;4995104;28;1061;-40
2022/12/31 16:22:42;;;;;;;;;;;;;;;;;;4995525;28;1985;-39
2022/12/31 16:25:17;;;;;;;;;;;;;;;;;;4995168;28;1217;-40
2022/12/31 16:28:00;;;;;;;;;;;;;;;;;;4995429;28;1109;-39
2022/12/31 16:30:29;;;;;;;;;;;;;;;;;;4995441;28;991;-39
2022/12/31 16:33:00;;;;;;;;;;;;;;;;;;4995297;28;1307;-39
2022/12/31 16:35:29;;;;;;;;;;;;;;;;;;4995176;28;1096;-39
2022/12/31 16:38:15;;;;;;;;;;;;;;;;;;4995169;28;959;-39
2022/12/31 16:41:03;;;;;;;;;;;;;;;;;;4995197;28;1090;-39
2022/12/31 16:43:37;;;;;;;;;;;;;;;;;;4988516;28;1402;-39
2022/12/31 16:46:08;;;;;;;;;;;;;;;;;;4995153;28;966;-38
2022/12/31 16:48:36;;;;;;;;;;;;;;;;;;4994928;28;1384;-39
2022/12/31 16:51:03;;;;;;;;;;;;;;;;;;4994770;28;1097;-39
2022/12/31 16:53:33;;;;;;;;;;;;;;;;;;4995117;28;979;-39
2022/12/31 16:56:05;;;;;;;;;;;;;;;;;;4995001;28;918;-39
2022/12/31 16:58:33;;;;;;;;;;;;;;;;;;4994818;28;958;-39
2022/12/31 17:01:21;;;;;;;;;;;;;;;;;;4994742;28;1977;-38
2022/12/31 17:03:50;;;;;;;;;;;;;;;;;;4994692;28;1320;-39
2022/12/31 17:06:19;;;;;;;;;;;;;;;;;;4994461;28;1024;-38
2022/12/31 17:09:03;;;;;;;;;;;;;;;;;;4994635;28;1090;-39
2022/12/31 17:11:33;;;;;;;;;;;;;;;;;;4994559;28;1100;-39
2022/12/31 17:14:00;;;;;;;;;;;;;;;;;;4994628;28;1164;-38
2022/12/31 17:16:27;;;;;;;;;;;;;;;;;;4994382;28;1078;-42
2022/12/31 17:19:27;;;;;;;;;;;;;;;;;;4994520;28;907;-38
2022/12/31 17:21:57;;;;;;;;;;;;;;;;;;4994494;28;1911;-39
2022/12/31 17:24:24;;;;;;;;;;;;;;;;;;4993987;28;1191;-38
2022/12/31 17:26:52;;;;;;;;;;;;;;;;;;4993079;28;1332;-38
2022/12/31 17:29:21;;;;;;;;;;;;;;;;;;4994066;28;951;-39
2022/12/31 17:32:04;;;;;;;;;;;;;;;;;;4994117;28;994;-38
2022/12/31 17:34:38;;;;;;;;;;;;;;;;;;5001712;28;1181;-38
2022/12/31 17:37:15;;;;;;;;;;;;;;;;;;5006712;28;1179;-39
2022/12/31 17:39:45;;;;;;;;;;;;;;;;;;4993903;28;1152;-38
2022/12/31 17:42:14;;;;;;;;;;;;;;;;;;4992733;28;1987;-38
2022/12/31 17:44:43;;;;;;;;;;;;;;;;;;4993832;28;1077;-38
2022/12/31 17:47:12;;;;;;;;;;;;;;;;;;4993777;28;1076;-39
2022/12/31 17:49:42;;;;;;;;;;;;;;;;;;4993711;28;978;-38
2022/12/31 17:52:13;;;;;;;;;;;;;;;;;;4993673;28;1002;-38
2022/12/31 17:54:41;;;;;;;;;;;;;;;;;;4993494;28;934;-38
2022/12/31 17:57:23;;;;;;;;;;;;;;;;;;4993551;28;1225;-38
2022/12/31 17:59:50;;;;;;;;;;;;;;;;;;4993708;28;1148;-38
2022/12/31 18:02:17;;;;;;;;;;;;;;;;;;4993481;28;1914;-38
2022/12/31 18:04:45;;;;;;;;;;;;;;;;;;4993543;28;1095;-39
2022/12/31 18:07:12;;;;;;;;;;;;;;;;;;4992382;28;1055;-38